Список аэропортов
Фактическая погода:

21 января, 13:00
Температура: +5°C (+0.5*)
Ветер: сев.-западный 7 м/с
Давление: *758 мм
разорв. обл.
240 м
Время (МСК)Темп. СВетерВлажностьДавлениеОблачностьОсадки
09:00+9Ю, 10 м/с82%1007 гПаоблачнодождь
10:00+10Ю, 12 м/с70%1007 гПаоблачнодождь
11:00+10Ю, 13 м/с77%1006 гПаоблачнодождь
12:00+10ЮЗ, 13 м/с81%1006 гПаоблачносл. дождь
13:00+8З, 10 м/с76%1009 гПаоблачно
14:00+7З, 7 м/с77%1011 гПаоблачно
15:00+6З, 7 м/с75%1012 гПаоблачно
16:00+6З, 5 м/с74%1013 гПаоблачно
17:00+5З, 3 м/с75%1014 гПаоблачно
18:00+5З, 2 м/с75%1015 гПаоблачно
19:00+5З, 2 м/с76%1016 гПаоблачно
20:00+4С, 3 м/с78%1015 гПаоблачно
21:00+3СВ, 3 м/с80%1015 гПаоблачно
22:00+3В, 3 м/с84%1014 гПаоблачно
23:00+2СВ, 4 м/с86%1013 гПаоблачно
22 января
00:00+3В, 6 м/с86%1013 гПаоблачносл. дождь
01:00+3В, 7 м/с87%1012 гПаоблачнодождь
02:00+3В, 6 м/с88%1012 гПаоблачнодождь
03:00+3В, 7 м/с87%1010 гПаоблачнодождь
04:00+3В, 8 м/с86%1009 гПаоблачносл. дождь
05:00+3В, 8 м/с86%1008 гПаоблачно
06:00+4В, 9 м/с85%1007 гПаоблачно
07:00+4В, 9 м/с86%1006 гПаоблачно
08:00+4В, 9 м/с84%1005 гПаоблачно
09:00+5В, 9 м/с84%1005 гПаоблачно
10:00+6В, 9 м/с79%1004 гПаоблачно
11:00+7В, 8 м/с76%1003 гПаоблачно
12:00+8В, 7 м/с72%1002 гПаоблачно
13:00+11В, 6 м/с67%1001 гПаоблачно
14:00+12ЮВ, 6 м/с66%1001 гПаоблачно
15:00+12ЮВ, 6 м/с67%1001 гПаоблачно
16:00+12Ю, 6 м/с68%1000 гПаоблачно
17:00+12Ю, 6 м/с68%1000 гПаоблачно
18:00+11Ю, 6 м/с73%1000 гПас прояснениями
19:00+11ЮВ, 6 м/с74%1000 гПаоблачно
20:00+11ЮВ, 5 м/с72%1000 гПаоблачносл. дождь
21:00+11ЮВ, 5 м/с76%1000 гПаоблачносл. дождь
22:00+11ЮВ, 4 м/с75%1000 гПаоблачносл. дождь
23:00+11ЮВ, 6 м/с71%999 гПаоблачно
23 января
00:00+11Ю, 5 м/с75%999 гПас прояснениями
01:00+10ЮВ, 5 м/с79%999 гПас прояснениями
02:00+10ЮВ, 5 м/с81%999 гПаоблачно
03:00+10ЮВ, 5 м/с85%999 гПаоблачно
04:00+10ЮВ, 5 м/с84%999 гПаоблачно
05:00+11ЮВ, 6 м/с80%999 гПаоблачно
06:00+11ЮВ, 7 м/с80%998 гПаоблачно
07:00+11ЮВ, 6 м/с78%998 гПаоблачносл. дождь
08:00+11ЮВ, 6 м/с80%999 гПаоблачнодождь
09:00+11ЮВ, 5 м/с81%1000 гПаоблачнодождь